createdAt,value
2018-08-09T00:00:32.781Z,86.57
2018-08-09T00:01:41.455Z,86.38
2018-08-09T00:02:50.077Z,86.76
2018-08-09T00:03:58.717Z,85.89
2018-08-09T00:05:07.368Z,86.18
2018-08-09T00:06:16.003Z,85.89
2018-08-09T00:07:24.658Z,86.47
2018-08-09T00:08:33.309Z,86.38
2018-08-09T00:09:42.223Z,86.09
2018-08-09T00:10:50.862Z,86.66
2018-08-09T00:11:59.528Z,86.38
2018-08-09T00:13:08.173Z,85.99
2018-08-09T00:14:16.823Z,86.18
2018-08-09T00:15:25.462Z,86.09
2018-08-09T00:16:34.638Z,85.99
2018-08-09T00:17:43.289Z,85.99
2018-08-09T00:18:51.942Z,86.47
2018-08-09T00:20:01.128Z,87.34
2018-08-09T00:21:09.768Z,87.43
2018-08-09T00:22:18.418Z,87.05
2018-08-09T00:23:27.065Z,87.34
2018-08-09T00:24:35.720Z,87.24
2018-08-09T00:25:44.620Z,87.24
2018-08-09T00:26:53.273Z,87.43
2018-08-09T00:28:01.917Z,87.34
2018-08-09T00:29:10.573Z,86.95
2018-08-09T00:30:19.211Z,87.29
2018-08-09T00:31:27.857Z,87.19
2018-08-09T00:32:36.503Z,87.68
2018-08-09T00:33:45.161Z,87.68
2018-08-09T00:34:54.071Z,88.16
2018-08-09T00:36:02.714Z,88.25
2018-08-09T00:37:11.360Z,88.25
2018-08-09T00:38:20.543Z,88.06
2018-08-09T00:39:29.729Z,88.25
2018-08-09T00:40:38.635Z,88.16
2018-08-09T00:41:47.286Z,87.96
2018-08-09T00:42:55.923Z,88.35
2018-08-09T00:44:04.580Z,88.45
2018-08-09T00:45:13.221Z,88.3
2018-08-09T00:46:21.872Z,88.97
2018-08-09T00:47:30.514Z,89.07
2018-08-09T00:48:39.165Z,88.93
2018-08-09T00:49:48.078Z,90.17
2018-08-09T00:50:56.729Z,89.4
2018-08-09T00:52:05.373Z,89.12
2018-08-09T00:53:14.020Z,89.45
2018-08-09T00:54:22.670Z,89.5
2018-08-09T00:55:31.323Z,89.79
2018-08-09T00:56:40.537Z,89.69
2018-08-09T00:57:49.233Z,89.89
2018-08-09T00:58:57.826Z,89.98
2018-08-09T01:00:06.749Z,89.4
2018-08-09T01:01:15.401Z,89.4
2018-08-09T01:02:24.044Z,89.4
2018-08-09T01:03:32.690Z,89.6
2018-08-09T01:04:41.337Z,89.5
2018-08-09T01:05:49.989Z,89.4
2018-08-09T01:06:58.630Z,89.26
2018-08-09T01:08:07.279Z,88.97
2018-08-09T01:09:15.926Z,88.97
2018-08-09T01:10:24.850Z,89.54
2018-08-09T01:11:33.496Z,89.26
2018-08-09T01:12:42.143Z,90.03
2018-08-09T01:13:50.789Z,90.03
2018-08-09T01:14:59.434Z,89.83
2018-08-09T01:16:08.084Z,89.64
2018-08-09T01:17:16.733Z,89.74
2018-08-09T01:18:25.381Z,89.36
2018-08-09T01:19:34.024Z,89.02
2018-08-09T01:20:42.998Z,89.22
2018-08-09T01:21:51.912Z,88.78
2018-08-09T01:23:00.559Z,89.07
2018-08-09T01:24:09.202Z,89.02
2018-08-09T01:25:17.853Z,89.07
2018-08-09T01:26:26.772Z,88.97
2018-08-09T01:27:35.421Z,89.36
2018-08-09T01:28:44.063Z,89.07
2018-08-09T01:29:52.714Z,88.87
2018-08-09T01:31:01.359Z,89.07
2018-08-09T01:32:10.010Z,89.16
2018-08-09T01:33:18.657Z,89.16
2018-08-09T01:34:27.297Z,89.54
2018-08-09T01:35:35.947Z,89.54
2018-08-09T01:36:44.590Z,89.54
2018-08-09T01:37:53.244Z,89.07
2018-08-09T01:39:01.884Z,89.45
2018-08-09T01:40:10.807Z,89.83
2018-08-09T01:41:19.442Z,90.12
2018-08-09T01:42:28.097Z,90.03
2018-08-09T01:43:36.738Z,89.98
2018-08-09T01:44:45.388Z,89.69
2018-08-09T01:45:54.294Z,90.22
2018-08-09T01:47:02.950Z,89.98
2018-08-09T01:48:11.596Z,90.27
2018-08-09T01:49:20.238Z,90.46
2018-08-09T01:50:28.883Z,90.37
2018-08-09T01:51:37.527Z,90.66
2018-08-09T01:52:46.455Z,90.84
2018-08-09T01:53:55.096Z,91.04
2018-08-09T01:55:03.750Z,91.71
2018-08-09T01:56:12.386Z,91.42
2018-08-09T01:57:21.046Z,91.96
2018-08-09T01:58:29.696Z,91.66
2018-08-09T01:59:38.612Z,92.43
2018-08-09T02:00:47.512Z,92.05
2018-08-09T02:01:56.171Z,92.53
2018-08-09T02:03:04.818Z,92.53
2018-08-09T02:04:13.465Z,92.33
2018-08-09T02:05:22.367Z,92.43
2018-08-09T02:06:31.014Z,92.72
2018-08-09T02:07:39.667Z,92.82
2018-08-09T02:08:48.587Z,93.2
2018-08-09T02:09:57.538Z,92.86
2018-08-09T02:11:06.179Z,92.68
2018-08-09T02:12:15.093Z,93.49
2018-08-09T02:13:23.737Z,93.25
2018-08-09T02:14:32.394Z,93.68
2018-08-09T02:15:41.035Z,93.1
2018-08-09T02:16:49.699Z,93.39
2018-08-09T02:17:58.337Z,93.3
2018-08-09T02:19:06.996Z,92.72
2018-08-09T02:20:15.633Z,93.39
2018-08-09T02:21:24.283Z,93.3
2018-08-09T02:22:32.928Z,93.39
2018-08-09T02:23:41.587Z,93.59
2018-08-09T02:24:50.230Z,93.87
2018-08-09T02:25:58.868Z,93.3
2018-08-09T02:27:08.038Z,93.3
2018-08-09T02:28:16.683Z,93.1
2018-08-09T02:29:25.338Z,93.1
2018-08-09T02:30:33.983Z,92.91
2018-08-09T02:31:42.639Z,93.49
2018-08-09T02:32:51.547Z,93.3
2018-08-09T02:34:00.202Z,93.49
2018-08-09T02:35:08.847Z,93.49
2018-08-09T02:36:17.508Z,93.49
2018-08-09T02:37:26.154Z,93.87
2018-08-09T02:38:35.082Z,93.49
2018-08-09T02:39:43.990Z,93.59
2018-08-09T02:40:52.645Z,93.49
2018-08-09T02:42:01.287Z,93.35
2018-08-09T02:43:10.477Z,93.63
2018-08-09T02:44:19.124Z,94.21
2018-08-09T02:45:27.768Z,94.21
2018-08-09T02:46:36.733Z,93.63
2018-08-09T02:47:45.339Z,94.21
2018-08-09T02:48:53.987Z,94.79
2018-08-09T02:50:02.641Z,94.79
2018-08-09T02:51:11.541Z,94.59
2018-08-09T02:52:20.489Z,94.88
2018-08-09T02:53:29.142Z,94.79
2018-08-09T02:54:37.795Z,94.79
2018-08-09T02:55:46.431Z,94.69
2018-08-09T02:56:55.353Z,95.17
2018-08-09T02:58:03.996Z,94.88
2018-08-09T02:59:12.644Z,95.17
2018-08-09T03:00:21.282Z,95.41
2018-08-09T03:01:29.931Z,96.08
2018-08-09T03:02:38.586Z,95.79
2018-08-09T03:03:47.778Z,96.47
2018-08-09T03:04:56.426Z,96.47
2018-08-09T03:06:05.590Z,96.27
2018-08-09T03:07:14.247Z,96.08
2018-08-09T03:08:23.171Z,96.27
2018-08-09T03:09:32.091Z,96.37
2018-08-09T03:10:40.730Z,96.94
2018-08-09T03:11:49.386Z,96.85
2018-08-09T03:12:58.025Z,96.47
2018-08-09T03:14:06.680Z,96.66
2018-08-09T03:15:15.321Z,96.47
2018-08-09T03:16:23.970Z,96.85
2018-08-09T03:17:32.616Z,96.66
2018-08-09T03:18:41.276Z,97.04
2018-08-09T03:19:49.922Z,96.66
2018-08-09T03:20:58.564Z,97.52
2018-08-09T03:22:07.209Z,97.33
2018-08-09T03:23:15.852Z,97.52
2018-08-09T03:24:24.516Z,97.61
2018-08-09T03:25:33.151Z,97.9
2018-08-09T03:26:41.803Z,98.1
2018-08-09T03:27:50.439Z,97.95
2018-08-09T03:28:59.095Z,98.05
2018-08-09T03:30:07.733Z,97.85
2018-08-09T03:31:16.391Z,98.14
2018-08-09T03:32:25.035Z,98.43
2018-08-09T03:33:33.690Z,98.81
2018-08-09T03:34:42.335Z,98.91
2018-08-09T03:35:50.984Z,98.43
2018-08-09T03:36:59.888Z,98.91
2018-08-09T03:38:08.537Z,98.62
2018-08-09T03:39:17.189Z,98.62
2018-08-09T03:40:26.099Z,98.81
2018-08-09T03:41:34.747Z,98.72
2018-08-09T03:42:43.391Z,98.91
2018-08-09T03:43:52.040Z,99.01
2018-08-09T03:45:00.687Z,98.91
2018-08-09T03:46:09.345Z,98.72
2018-08-09T03:47:18.250Z,99.68
2018-08-09T03:48:26.894Z,99.1
2018-08-09T03:49:35.543Z,99.48
2018-08-09T03:50:44.194Z,99.29
2018-08-09T03:51:53.102Z,99.77
2018-08-09T03:53:01.752Z,99.29
2018-08-09T03:54:10.394Z,99.96
2018-08-09T03:55:19.046Z,99.82
2018-08-09T03:56:27.951Z,99.43
2018-08-09T03:57:36.599Z,99.68
2018-08-09T03:58:45.246Z,99.24
2018-08-09T03:59:53.889Z,99.19
2018-08-09T04:01:02.541Z,99.15
2018-08-09T04:02:11.448Z,99.34
2018-08-09T04:03:20.359Z,99.43
2018-08-09T04:04:29.000Z,99.53
2018-08-09T04:05:37.652Z,99.99
2018-08-09T04:06:46.298Z,99.99
2018-08-09T04:07:54.943Z,99.99
2018-08-09T04:09:03.588Z,99.99
2018-08-09T04:10:12.236Z,99.99
2018-08-09T04:11:20.880Z,99.99
2018-08-09T04:12:29.789Z,99.99
2018-08-09T04:13:38.698Z,99.72
2018-08-09T04:14:47.348Z,99.99
2018-08-09T04:15:55.993Z,99.99
2018-08-09T04:17:04.641Z,99.82
2018-08-09T04:18:13.294Z,99.87
2018-08-09T04:19:21.932Z,99.99
2018-08-09T04:20:30.579Z,99.87
2018-08-09T04:21:39.224Z,99.91
2018-08-09T04:22:47.881Z,99.77
2018-08-09T04:23:56.523Z,99.99
2018-08-09T04:25:05.169Z,99.58
2018-08-09T04:26:13.816Z,99.29
2018-08-09T04:27:22.471Z,99.87
2018-08-09T04:28:31.113Z,99.82
2018-08-09T04:29:39.762Z,99.15
2018-08-09T04:30:48.402Z,99.39
2018-08-09T04:31:57.050Z,99.24
2018-08-09T04:33:05.952Z,99.43
2018-08-09T04:34:14.597Z,99.43
2018-08-09T04:35:23.242Z,98.91
2018-08-09T04:36:31.887Z,99.39
2018-08-09T04:37:40.804Z,99.58
2018-08-09T04:38:49.447Z,99.29
2018-08-09T04:39:58.094Z,99.19
2018-08-09T04:41:06.733Z,99.01
2018-08-09T04:42:15.381Z,98.91
2018-08-09T04:43:24.031Z,98.52
2018-08-09T04:44:32.673Z,98.72
2018-08-09T04:45:41.605Z,98.52
2018-08-09T04:46:50.243Z,97.95
2018-08-09T04:47:58.892Z,98.67
2018-08-09T04:49:07.537Z,98.28
2018-08-09T04:50:16.191Z,98.19
2018-08-09T04:51:24.835Z,98.28
2018-08-09T04:52:33.475Z,98.1
2018-08-09T04:53:42.118Z,98.1
2018-08-09T04:54:50.766Z,98
2018-08-09T04:55:59.418Z,98.38
2018-08-09T04:57:08.322Z,97.9
2018-08-09T04:58:17.004Z,97.71
2018-08-09T04:59:25.617Z,97.9
2018-08-09T05:00:34.266Z,98.1
2018-08-09T05:01:42.908Z,97.71
2018-08-09T05:02:51.559Z,97.9
2018-08-09T05:04:00.196Z,97.61
2018-08-09T05:05:08.852Z,97.23
2018-08-09T05:06:17.500Z,97.71
2018-08-09T05:07:26.416Z,97.61
2018-08-09T05:08:35.053Z,97.14
2018-08-09T05:09:43.702Z,97.14
2018-08-09T05:10:52.353Z,97.56
2018-08-09T05:12:01.003Z,97.66
2018-08-09T05:13:09.926Z,96.8
2018-08-09T05:14:18.551Z,97.19
2018-08-09T05:15:27.203Z,96.8
2018-08-09T05:16:35.848Z,96.89
2018-08-09T05:17:44.503Z,96.42
2018-08-09T05:18:53.146Z,96.8
2018-08-09T05:20:01.800Z,96.89
2018-08-09T05:21:10.963Z,96.8
2018-08-09T05:22:19.620Z,96.32
2018-08-09T05:23:28.257Z,96.13
2018-08-09T05:24:36.908Z,96.03
2018-08-09T05:25:45.815Z,95.75
2018-08-09T05:26:54.471Z,95.75
2018-08-09T05:28:03.115Z,96.13
2018-08-09T05:29:11.769Z,95.75
2018-08-09T05:30:20.678Z,95.94
2018-08-09T05:31:29.601Z,96.03
2018-08-09T05:32:38.241Z,95.75
2018-08-09T05:33:46.881Z,95.36
2018-08-09T05:34:55.532Z,95.55
2018-08-09T05:36:04.172Z,95.31
2018-08-09T05:37:12.825Z,94.93
2018-08-09T05:38:21.469Z,94.98
2018-08-09T05:39:30.119Z,95.12
2018-08-09T05:40:38.758Z,94.64
2018-08-09T05:41:47.412Z,94.64
2018-08-09T05:42:56.050Z,94.64
2018-08-09T05:44:04.701Z,94.74
2018-08-09T05:45:13.365Z,94.74
2018-08-09T05:46:21.995Z,94.83
2018-08-09T05:47:30.641Z,94.93
2018-08-09T05:48:39.291Z,94.83
2018-08-09T05:49:47.940Z,94.64
2018-08-09T05:50:56.584Z,95.12
2018-08-09T05:52:05.230Z,95.12
2018-08-09T05:53:13.925Z,94.64
2018-08-09T05:54:23.252Z,94.83
2018-08-09T05:55:31.895Z,94.74
2018-08-09T05:56:40.802Z,94.64
2018-08-09T05:57:49.454Z,94.83
2018-08-09T05:58:58.108Z,94.64
2018-08-09T06:00:06.749Z,93.97
2018-08-09T06:01:15.399Z,93.97
2018-08-09T06:02:24.043Z,93.73
2018-08-09T06:03:32.694Z,94.31
2018-08-09T06:04:41.339Z,94.01
2018-08-09T06:05:50.340Z,94.01
2018-08-09T06:06:58.980Z,93.73
2018-08-09T06:08:08.145Z,93.63
2018-08-09T06:09:17.060Z,93.63
2018-08-09T06:10:25.708Z,93.44
2018-08-09T06:11:34.354Z,93.63
2018-08-09T06:12:42.997Z,93.54
2018-08-09T06:13:51.916Z,93.25
2018-08-09T06:15:00.566Z,93.34
2018-08-09T06:16:09.223Z,93.73
2018-08-09T06:17:17.864Z,93.05
2018-08-09T06:18:26.776Z,93.05
2018-08-09T06:19:35.421Z,92.91
2018-08-09T06:20:44.340Z,93.25
2018-08-09T06:21:52.983Z,93.39
2018-08-09T06:23:01.636Z,92.24
2018-08-09T06:24:10.283Z,92.91
2018-08-09T06:25:18.934Z,92.43
2018-08-09T06:26:27.716Z,92.48
2018-08-09T06:27:36.233Z,92.14
2018-08-09T06:28:44.907Z,92.14
2018-08-09T06:29:53.879Z,92.43
2018-08-09T06:31:02.532Z,92.43
2018-08-09T06:32:11.178Z,92.05
2018-08-09T06:33:20.103Z,92.24
2018-08-09T06:34:28.738Z,92.86
2018-08-09T06:35:37.390Z,92.72
2018-08-09T06:36:46.033Z,92.57
2018-08-09T06:37:54.681Z,92.48
2018-08-09T06:39:03.328Z,92.62
2018-08-09T06:40:11.975Z,92.91
2018-08-09T06:41:20.622Z,93.49
2018-08-09T06:42:29.268Z,92.81
2018-08-09T06:43:37.916Z,92.43
2018-08-09T06:44:46.834Z,92.72
2018-08-09T06:45:55.480Z,92.14
2018-08-09T06:47:04.130Z,92.24
2018-08-09T06:48:13.041Z,91.75
2018-08-09T06:49:21.693Z,91.61
2018-08-09T06:50:30.337Z,91.8
2018-08-09T06:51:38.984Z,91.71
2018-08-09T06:52:47.896Z,91.8
2018-08-09T06:53:56.547Z,91.22
2018-08-09T06:55:05.193Z,91.42
2018-08-09T06:56:13.892Z,91.17
2018-08-09T06:57:22.492Z,90.94
2018-08-09T06:58:31.148Z,90.17
2018-08-09T06:59:39.793Z,90.02
2018-08-09T07:00:48.439Z,89.88
2018-08-09T07:01:57.084Z,90.17
2018-08-09T07:03:05.729Z,90.26
2018-08-09T07:04:14.380Z,90.55
2018-08-09T07:05:23.031Z,90.65
2018-08-09T07:06:31.677Z,90.45
2018-08-09T07:07:40.320Z,89.98
2018-08-09T07:08:48.977Z,90.36
2018-08-09T07:09:57.620Z,90.75
2018-08-09T07:11:06.268Z,91.22
2018-08-09T07:12:14.910Z,91.42
2018-08-09T07:13:23.825Z,91.52
2018-08-09T07:14:32.731Z,91.32
2018-08-09T07:15:41.381Z,91.42
2018-08-09T07:16:50.026Z,91.03
2018-08-09T07:17:58.677Z,90.75
2018-08-09T07:19:07.322Z,90.17
2018-08-09T07:20:15.993Z,90.07
2018-08-09T07:21:24.968Z,90.02
2018-08-09T07:22:33.612Z,89.83
2018-08-09T07:23:42.260Z,89.25
2018-08-09T07:24:50.909Z,89.35
2018-08-09T07:25:59.560Z,88.19
2018-08-09T07:27:08.206Z,88.19
2018-08-09T07:28:16.852Z,88.48
2018-08-09T07:29:25.520Z,88
2018-08-09T07:30:34.151Z,88.39
2018-08-09T07:31:42.795Z,88.39
2018-08-09T07:32:51.442Z,87.9
2018-08-09T07:34:00.088Z,87.71
2018-08-09T07:35:08.739Z,88.04
2018-08-09T07:36:17.379Z,87.85
2018-08-09T07:37:26.030Z,86.99
2018-08-09T07:38:34.670Z,87.37
2018-08-09T07:39:43.331Z,86.99
2018-08-09T07:40:52.308Z,86.89
2018-08-09T07:42:00.954Z,86.79
2018-08-09T07:43:09.606Z,86.89
2018-08-09T07:44:18.245Z,86.69
2018-08-09T07:45:26.905Z,87.08
2018-08-09T07:46:35.799Z,85.83
2018-08-09T07:47:44.452Z,85.97
2018-08-09T07:48:53.160Z,85.1
2018-08-09T07:50:01.749Z,84.05
2018-08-09T07:51:10.395Z,83.12
2018-08-09T07:52:19.049Z,83.03
2018-08-09T07:53:27.687Z,81.87
2018-08-09T07:54:36.344Z,82.2
2018-08-09T07:55:44.991Z,81.33
2018-08-09T07:56:53.653Z,81.33
2018-08-09T07:58:02.296Z,78.48
2018-08-09T07:59:11.211Z,79.06
2018-08-09T08:00:19.863Z,79.93
2018-08-09T08:01:28.520Z,78.86
2018-08-09T08:02:37.178Z,76.88
2018-08-09T08:03:45.819Z,77.94
2018-08-09T08:04:54.473Z,77.65
2018-08-09T08:06:03.183Z,76.78
2018-08-09T08:07:11.776Z,76.78
2018-08-09T08:08:20.482Z,77.36
2018-08-09T08:09:29.071Z,77.65
2018-08-09T08:10:37.721Z,77.65
2018-08-09T08:11:46.649Z,77.75
2018-08-09T08:12:55.296Z,77.65
2018-08-09T08:14:04.202Z,77.75
2018-08-09T08:15:12.850Z,76.59
2018-08-09T08:16:21.497Z,77.55
2018-08-09T08:17:30.160Z,76.01
2018-08-09T08:18:39.071Z,76.1
2018-08-09T08:19:47.726Z,76.59
2018-08-09T08:20:56.366Z,77.17
2018-08-09T08:22:05.026Z,76.98
2018-08-09T08:23:13.937Z,77.03
2018-08-09T08:24:22.594Z,78.71
2018-08-09T08:25:31.233Z,79.54
2018-08-09T08:26:39.934Z,79.93
2018-08-09T08:27:48.549Z,81.18
2018-08-09T08:28:57.459Z,81.37
2018-08-09T08:30:06.098Z,78.38
2018-08-09T08:31:14.750Z,80.41
2018-08-09T08:32:23.404Z,81.66
2018-08-09T08:33:32.056Z,78.77
2018-08-09T08:34:40.787Z,79.44
2018-08-09T08:35:49.346Z,78.58
2018-08-09T08:36:58.007Z,77.65
2018-08-09T08:38:06.652Z,79
2018-08-09T08:39:15.576Z,76.98
2018-08-09T08:40:24.219Z,76.5
2018-08-09T08:41:32.938Z,77.3
2018-08-09T08:42:41.964Z,77.88
2018-08-09T08:43:50.620Z,77.4
2018-08-09T08:44:59.263Z,74.35
2018-08-09T08:46:07.917Z,73.58
2018-08-09T08:47:16.620Z,72.52
2018-08-09T08:48:25.220Z,72.03
2018-08-09T08:49:33.874Z,73.03
2018-08-09T08:50:42.519Z,71.78
2018-08-09T08:51:51.165Z,70.52
2018-08-09T08:52:59.813Z,70.42
2018-08-09T08:54:08.469Z,71.1
2018-08-09T08:55:17.434Z,70.72
2018-08-09T08:56:26.035Z,70.52
2018-08-09T08:57:34.946Z,70.36
2018-08-09T08:58:43.603Z,70.84
2018-08-09T08:59:52.562Z,69.3
2018-08-09T09:01:01.281Z,70.07
2018-08-09T09:02:09.859Z,70.26
2018-08-09T09:03:19.081Z,70.07
2018-08-09T09:04:27.786Z,70.75
2018-08-09T09:05:36.864Z,70.46
2018-08-09T09:06:45.510Z,70.75
2018-08-09T09:07:54.161Z,71.14
2018-08-09T09:09:02.812Z,70.46
2018-08-09T09:10:11.570Z,70.26
2018-08-09T09:11:20.221Z,71.14
2018-08-09T09:12:28.867Z,70.65
2018-08-09T09:13:37.576Z,71.04
2018-08-09T09:14:46.500Z,70.84
2018-08-09T09:15:55.421Z,70.75
2018-08-09T09:17:04.067Z,71.62
2018-08-09T09:18:12.726Z,70.88
2018-08-09T09:19:21.435Z,70.78
2018-08-09T09:20:30.036Z,70.01
2018-08-09T09:21:38.948Z,70.43
2018-08-09T09:22:47.605Z,70.43
2018-08-09T09:23:56.254Z,70.24
2018-08-09T09:25:04.909Z,70.34
2018-08-09T09:26:13.558Z,70.24
2018-08-09T09:27:22.210Z,70.14
2018-08-09T09:28:31.944Z,70.5
2018-08-09T09:29:41.315Z,71.17
2018-08-09T09:30:49.964Z,71.66
2018-08-09T09:31:58.616Z,71.66
2018-08-09T09:33:07.627Z,72.24
2018-08-09T09:34:16.311Z,71.94
2018-08-09T09:35:25.233Z,72.24
2018-08-09T09:36:33.887Z,72.62
2018-08-09T09:37:42.539Z,72.04
2018-08-09T09:38:51.186Z,72.24
2018-08-09T09:39:59.849Z,72.33
2018-08-09T09:41:08.497Z,72.52
2018-08-09T09:42:17.155Z,71.4
2018-08-09T09:43:25.797Z,71.69
2018-08-09T09:44:34.450Z,71.78
2018-08-09T09:45:43.383Z,70.82
2018-08-09T09:46:52.038Z,71.11
2018-08-09T09:48:00.951Z,71.04
2018-08-09T09:49:09.593Z,70.47
2018-08-09T09:50:18.255Z,70.56
2018-08-09T09:51:26.898Z,70.76
2018-08-09T09:52:35.827Z,70.37
2018-08-09T09:53:44.726Z,69.92
2018-08-09T09:54:53.441Z,69.05
2018-08-09T09:56:02.395Z,68.56
2018-08-09T09:57:11.009Z,68.21
2018-08-09T09:58:19.659Z,67.14
2018-08-09T09:59:28.311Z,66.66
2018-08-09T10:00:36.961Z,66.66
2018-08-09T10:01:45.643Z,66.5
2018-08-09T10:02:54.674Z,65.82
2018-08-09T10:04:03.322Z,65.56
2018-08-09T10:05:11.971Z,65.27
2018-08-09T10:06:20.621Z,65.47
2018-08-09T10:07:29.285Z,65.66
2018-08-09T10:08:37.931Z,65.66
2018-08-09T10:09:46.856Z,65.37
2018-08-09T10:10:55.500Z,65.17
2018-08-09T10:12:04.434Z,64.98
2018-08-09T10:13:13.083Z,65.08
2018-08-09T10:14:21.742Z,64.98
2018-08-09T10:15:30.386Z,64.43
2018-08-09T10:16:39.049Z,64.23
2018-08-09T10:17:47.695Z,64.53
2018-08-09T10:18:56.349Z,63.46
2018-08-09T10:20:04.996Z,64.82
2018-08-09T10:21:13.914Z,65.2
2018-08-09T10:22:22.570Z,65.01
2018-08-09T10:23:31.225Z,65.79
2018-08-09T10:24:40.144Z,64.33
2018-08-09T10:25:48.790Z,64.53
2018-08-09T10:26:57.446Z,64.53
2018-08-09T10:28:06.097Z,64.53
2018-08-09T10:29:14.757Z,64.65
2018-08-09T10:30:23.411Z,64.14
2018-08-09T10:31:32.068Z,64.23
2018-08-09T10:32:40.715Z,64.53
2018-08-09T10:33:49.367Z,64.17
2018-08-09T10:34:58.029Z,64.14
2018-08-09T10:36:06.680Z,64.36
2018-08-09T10:37:15.335Z,63.36
2018-08-09T10:38:23.978Z,64.53
2018-08-09T10:39:32.636Z,65.27
2018-08-09T10:40:41.294Z,66.14
2018-08-09T10:41:49.950Z,65.95
2018-08-09T10:42:58.609Z,65.95
2018-08-09T10:44:07.254Z,65.85
2018-08-09T10:45:15.910Z,65.37
2018-08-09T10:46:24.560Z,65.56
2018-08-09T10:47:33.495Z,65.2
2018-08-09T10:48:42.141Z,64.92
2018-08-09T10:49:50.797Z,65.3
2018-08-09T10:50:59.450Z,64.53
2018-08-09T10:52:08.106Z,62.68
2018-08-09T10:53:16.752Z,63.59
2018-08-09T10:54:25.407Z,63.75
2018-08-09T10:55:34.070Z,63.29
2018-08-09T10:56:43.058Z,63.68
2018-08-09T10:57:51.708Z,64.53
2018-08-09T10:59:00.360Z,63.95
2018-08-09T11:00:09.011Z,63.68
2018-08-09T11:01:17.669Z,63.2
2018-08-09T11:02:26.328Z,62.91
2018-08-09T11:03:35.241Z,62.42
2018-08-09T11:04:43.897Z,62.71
2018-08-09T11:05:52.540Z,62.71
2018-08-09T11:07:01.210Z,62.81
2018-08-09T11:08:10.203Z,63.78
2018-08-09T11:09:19.041Z,63.01
2018-08-09T11:10:27.940Z,62.52
2018-08-09T11:11:36.604Z,62.81
2018-08-09T11:12:45.782Z,63.29
2018-08-09T11:13:54.963Z,62.81
2018-08-09T11:15:03.648Z,62.16
2018-08-09T11:16:12.535Z,61.87
2018-08-09T11:17:21.194Z,61.29
2018-08-09T11:18:30.121Z,61.29
2018-08-09T11:19:38.775Z,61.29
2018-08-09T11:20:47.683Z,61.29
2018-08-09T11:21:56.339Z,62.16
2018-08-09T11:23:04.990Z,61.87
2018-08-09T11:24:13.653Z,61.41
2018-08-09T11:25:22.297Z,61.02
2018-08-09T11:26:30.955Z,60.35
2018-08-09T11:27:39.611Z,59.89
2018-08-09T11:28:48.531Z,58.26
2018-08-09T11:29:57.176Z,58.07
2018-08-09T11:31:05.833Z,57.51
2018-08-09T11:32:14.491Z,57.71
2018-08-09T11:33:23.152Z,58
2018-08-09T11:34:31.803Z,57.32
2018-08-09T11:35:40.457Z,57.22
2018-08-09T11:36:49.117Z,57.81
2018-08-09T11:37:57.771Z,57.71
2018-08-09T11:39:06.430Z,57.61
2018-08-09T11:40:15.083Z,57.49
2018-08-09T11:41:23.736Z,57.97
2018-08-09T11:42:32.387Z,58.56
2018-08-09T11:43:41.042Z,58.75
2018-08-09T11:44:49.957Z,58.36
2018-08-09T11:45:58.631Z,58.07
2018-08-09T11:47:07.280Z,58.26
2018-08-09T11:48:15.938Z,58.17
2018-08-09T11:49:24.641Z,57.71
2018-08-09T11:50:33.253Z,58
2018-08-09T11:51:42.247Z,57.03
2018-08-09T11:52:50.899Z,57.81
2018-08-09T11:54:00.104Z,58.39
2018-08-09T11:55:08.762Z,57.9
2018-08-09T11:56:17.492Z,57.61
2018-08-09T11:57:26.069Z,57.12
2018-08-09T11:58:34.993Z,57.12
2018-08-09T11:59:44.214Z,55.76
2018-08-09T12:00:52.872Z,55.96
2018-08-09T12:02:01.521Z,55.86
2018-08-09T12:03:10.195Z,56.25
2018-08-09T12:04:18.829Z,57.03
2018-08-09T12:05:27.496Z,56.35
2018-08-09T12:06:36.140Z,56.64
2018-08-09T12:07:44.795Z,57.12
2018-08-09T12:08:53.445Z,56.93
2018-08-09T12:10:02.105Z,57.22
2018-08-09T12:11:10.755Z,56.54
2018-08-09T12:12:19.425Z,56.74
2018-08-09T12:13:28.353Z,55.86
2018-08-09T12:14:36.977Z,57.25
2018-08-09T12:15:45.901Z,57.06
2018-08-09T12:16:54.817Z,55.99
2018-08-09T12:18:03.472Z,56.18
2018-08-09T12:19:12.122Z,55.89
2018-08-09T12:20:20.782Z,56.01
2018-08-09T12:21:29.435Z,54.85
2018-08-09T12:22:38.363Z,54.85
2018-08-09T12:23:47.013Z,54.75
2018-08-09T12:24:55.670Z,54.85
2018-08-09T12:26:04.323Z,54.85
2018-08-09T12:27:12.979Z,55.43
2018-08-09T12:28:21.629Z,55.89
2018-08-09T12:29:30.288Z,56.37
2018-08-09T12:30:38.942Z,57.22
2018-08-09T12:31:47.598Z,56.93
2018-08-09T12:32:56.249Z,56.96
2018-08-09T12:34:05.175Z,57.15
2018-08-09T12:35:13.825Z,56.57
2018-08-09T12:36:22.533Z,56.09
2018-08-09T12:37:31.131Z,55.99
2018-08-09T12:38:39.799Z,55.91
2018-08-09T12:39:48.443Z,55.43
2018-08-09T12:40:57.104Z,55.52
2018-08-09T12:42:06.018Z,55.23
2018-08-09T12:43:14.684Z,55.52
2018-08-09T12:44:23.337Z,55.75
2018-08-09T12:45:32.011Z,55.23
2018-08-09T12:46:40.989Z,54.97
2018-08-09T12:47:49.648Z,55.55
2018-08-09T12:48:58.304Z,55.36
2018-08-09T12:50:06.961Z,55.75
2018-08-09T12:51:15.624Z,55.65
2018-08-09T12:52:24.270Z,56.14
2018-08-09T12:53:32.929Z,56.33
2018-08-09T12:54:41.579Z,55.75
2018-08-09T12:55:50.243Z,56.33
2018-08-09T12:56:58.892Z,56.33
2018-08-09T12:58:07.814Z,57.11
2018-08-09T12:59:16.739Z,57.21
2018-08-09T13:00:25.669Z,56.43
2018-08-09T13:01:34.332Z,56.52
2018-08-09T13:02:42.972Z,56.82
2018-08-09T13:03:51.627Z,56.72
2018-08-09T13:05:00.292Z,56.43
2018-08-09T13:06:08.942Z,56.92
2018-08-09T13:07:17.591Z,56.82
2018-08-09T13:08:26.308Z,57.11
2018-08-09T13:09:34.898Z,57.31
2018-08-09T13:10:43.830Z,57.31
2018-08-09T13:11:52.746Z,56.82
2018-08-09T13:13:01.405Z,56.82
2018-08-09T13:14:10.053Z,57.31
2018-08-09T13:15:18.714Z,57.31
2018-08-09T13:16:27.363Z,57.7
2018-08-09T13:17:36.024Z,58.28
2018-08-09T13:18:45.198Z,58.45
2018-08-09T13:19:53.862Z,58.94
2018-08-09T13:21:02.515Z,59.13
2018-08-09T13:22:11.170Z,59.39
2018-08-09T13:23:20.098Z,59.49
2018-08-09T13:24:29.125Z,60
2018-08-09T13:25:37.778Z,59.78
2018-08-09T13:26:46.435Z,60.46
2018-08-09T13:27:55.091Z,60.08
2018-08-09T13:29:03.738Z,59.98
2018-08-09T13:30:12.430Z,59.98
2018-08-09T13:31:21.321Z,60.95
2018-08-09T13:32:30.252Z,60.95
2018-08-09T13:33:38.931Z,60.63
2018-08-09T13:34:47.925Z,60.72
2018-08-09T13:35:56.581Z,61.31
2018-08-09T13:37:05.238Z,61.02
2018-08-09T13:38:13.893Z,61.21
2018-08-09T13:39:22.541Z,61.41
2018-08-09T13:40:31.467Z,61.31
2018-08-09T13:41:40.114Z,61.6
2018-08-09T13:42:48.765Z,62.09
2018-08-09T13:43:57.422Z,62.29
2018-08-09T13:45:06.073Z,63.26
2018-08-09T13:46:14.726Z,63.16
2018-08-09T13:47:23.649Z,62.77
2018-08-09T13:48:32.571Z,62.77
2018-08-09T13:49:41.228Z,62.67
2018-08-09T13:50:49.874Z,62.09
2018-08-09T13:51:58.796Z,61.7
2018-08-09T13:53:07.450Z,62.09
2018-08-09T13:54:16.107Z,61.6
2018-08-09T13:55:24.758Z,61.31
2018-08-09T13:56:33.938Z,61.44
2018-08-09T13:57:42.596Z,61.63
2018-08-09T13:58:51.259Z,61.34
2018-08-09T13:59:59.909Z,61.24
2018-08-09T14:01:08.838Z,61.15
2018-08-09T14:02:17.756Z,61.51
2018-08-09T14:03:26.415Z,61.63
2018-08-09T14:04:35.072Z,61.8
2018-08-09T14:05:43.755Z,62.29
2018-08-09T14:06:52.411Z,62.87
2018-08-09T14:08:01.333Z,63.35
2018-08-09T14:09:09.987Z,63.35
2018-08-09T14:10:18.636Z,63.52
2018-08-09T14:11:27.292Z,63.81
2018-08-09T14:12:35.946Z,65.08
2018-08-09T14:13:44.607Z,65.08
2018-08-09T14:14:53.523Z,65.63
2018-08-09T14:16:02.457Z,65.72
2018-08-09T14:17:11.109Z,66.11
2018-08-09T14:18:19.765Z,66.79
2018-08-09T14:19:28.690Z,66.6
2018-08-09T14:20:37.344Z,68.15
2018-08-09T14:21:45.998Z,69.81
2018-08-09T14:22:54.917Z,72.39
2018-08-09T14:24:03.573Z,76.97
2018-08-09T14:25:12.503Z,78.19
2018-08-09T14:26:21.160Z,76.44
2018-08-09T14:27:29.812Z,76.69
2018-08-09T14:28:38.465Z,75.49
2018-08-09T14:29:47.121Z,77.78
2018-08-09T14:30:55.773Z,80.69
2018-08-09T14:32:04.433Z,82.2
2018-08-09T14:33:13.345Z,82.65
2018-08-09T14:34:22.265Z,83.96
2018-08-09T14:35:30.918Z,84.06
2018-08-09T14:36:39.835Z,84.83
2018-08-09T14:37:48.505Z,84.99
2018-08-09T14:38:57.801Z,84.6
2018-08-09T14:40:06.451Z,87.02
2018-08-09T14:41:15.100Z,87.21
2018-08-09T14:42:23.807Z,87.6
2018-08-09T14:43:32.410Z,87.55
2018-08-09T14:44:41.064Z,89.01
2018-08-09T14:45:49.975Z,87.75
2018-08-09T14:46:58.633Z,88.53
2018-08-09T14:48:07.288Z,89.39